Time;durP1;ratioP1;P1;durP2;ratioP2;P2;SDS_P1;SDS_P2;PMS_P1;PMS_P2;Temp;Humidity;BMP_temperature;BMP_pressure;BME280_temperature;BME280_humidity;BME280_pressure;Samples;Min_cycle;Max_cycle;Signal;HPM_P1;HPM_P2
2022/07/08 00:00:40;;;;;;;;;1.00;1.00;;;;;;;;5091501;27;45400;-68
2022/07/08 00:03:05;;;;;;;;;2.00;2.00;;;;;;;;5091134;27;45457;-68
2022/07/08 00:05:30;;;;;;;;;2.00;2.00;;;;;;;;5094107;27;45320;-68
2022/07/08 00:07:56;;;;;;;;;2.00;1.00;;;;;;;;5092467;27;45921;-68
2022/07/08 00:10:21;;;;;;;;;1.00;1.00;;;;;;;;5091464;27;45540;-69
2022/07/08 00:12:47;;;;;;;;;2.00;2.00;;;;;;;;5091140;27;46565;-68
2022/07/08 00:15:13;;;;;;;;;1.00;1.00;;;;;;;;5093054;27;45402;-68
2022/07/08 00:17:38;;;;;;;;;3.00;2.00;;;;;;;;5093689;27;45477;-68
2022/07/08 00:20:04;;;;;;;;;2.00;2.00;;;;;;;;5092505;27;45286;-68
2022/07/08 00:22:29;;;;;;;;;1.00;1.00;;;;;;;;5091118;27;45379;-68
2022/07/08 00:24:55;;;;;;;;;2.00;2.00;;;;;;;;5091257;27;45333;-68
2022/07/08 00:27:20;;;;;;;;;1.67;1.67;;;;;;;;5091063;27;48606;-68
2022/07/08 00:29:46;;;;;;;;;4.00;1.67;;;;;;;;5106938;27;45451;-68
2022/07/08 00:32:11;;;;;;;;;2.00;2.00;;;;;;;;5093179;27;46132;-68
2022/07/08 00:34:36;;;;;;;;;2.00;2.00;;;;;;;;5090848;27;45364;-68
2022/07/08 00:37:02;;;;;;;;;1.00;1.00;;;;;;;;5091495;27;45366;-68
2022/07/08 00:39:28;;;;;;;;;1.00;1.00;;;;;;;;5091579;27;45584;-68
2022/07/08 00:41:53;;;;;;;;;1.00;1.00;;;;;;;;5094681;27;45372;-68
2022/07/08 00:44:18;;;;;;;;;1.33;1.33;;;;;;;;5097761;27;45452;-68
2022/07/08 00:46:44;;;;;;;;;2.67;1.00;;;;;;;;5094132;27;46422;-68
2022/07/08 00:49:09;;;;;;;;;2.00;2.00;;;;;;;;5096560;27;45415;-68
2022/07/08 00:51:34;;;;;;;;;1.00;1.00;;;;;;;;5094279;27;45551;-68
2022/07/08 00:54:00;;;;;;;;;1.00;1.00;;;;;;;;5093617;27;45458;-68
2022/07/08 00:56:27;;;;;;;;;1.00;1.00;;;;;;;;5097608;27;45470;-68
2022/07/08 00:58:52;;;;;;;;;2.33;2.00;;;;;;;;5094985;27;45282;-68
2022/07/08 01:01:17;;;;;;;;;1.00;1.00;;;;;;;;5093614;27;46197;-68
2022/07/08 01:03:46;;;;;;;;;1.00;1.00;;;;;;;;5094402;27;45240;-68
2022/07/08 01:06:11;;;;;;;;;1.00;1.00;;;;;;;;5095458;27;45390;-68
2022/07/08 01:08:36;;;;;;;;;1.00;1.00;;;;;;;;5096501;27;45342;-68
2022/07/08 01:11:01;;;;;;;;;2.00;2.00;;;;;;;;5095439;27;46011;-68
2022/07/08 01:13:27;;;;;;;;;1.67;1.67;;;;;;;;5093963;27;45450;-68
2022/07/08 01:15:52;;;;;;;;;1.00;1.00;;;;;;;;5093927;27;45421;-68
2022/07/08 01:18:28;;;;;;;;;1.00;1.00;;;;;;;;5094172;27;45339;-67
2022/07/08 01:20:53;;;;;;;;;1.00;1.00;;;;;;;;5089072;27;46360;-68
2022/07/08 01:23:19;;;;;;;;;2.00;2.00;;;;;;;;5097243;27;45452;-68
2022/07/08 01:25:45;;;;;;;;;2.00;2.00;;;;;;;;5093808;27;45368;-68
2022/07/08 01:28:11;;;;;;;;;1.67;1.00;;;;;;;;5097242;27;45238;-68
2022/07/08 01:30:36;;;;;;;;;2.00;2.00;;;;;;;;5104274;27;48446;-68
2022/07/08 01:33:01;;;;;;;;;1.33;1.33;;;;;;;;5093841;27;45539;-69
2022/07/08 01:35:26;;;;;;;;;1.00;1.00;;;;;;;;5097395;27;45381;-68
2022/07/08 01:37:51;;;;;;;;;2.00;2.00;;;;;;;;5094153;27;45537;-68
2022/07/08 01:40:17;;;;;;;;;1.33;1.33;;;;;;;;5094444;27;45516;-68
2022/07/08 01:42:42;;;;;;;;;1.33;1.00;;;;;;;;5103025;27;45594;-68
2022/07/08 01:45:07;;;;;;;;;1.00;1.00;;;;;;;;5093229;27;45469;-69
2022/07/08 01:47:32;;;;;;;;;1.00;1.00;;;;;;;;5096256;27;45378;-68
2022/07/08 01:49:57;;;;;;;;;1.00;1.00;;;;;;;;5094537;27;46333;-68
2022/07/08 01:52:23;;;;;;;;;1.00;1.00;;;;;;;;5094170;27;45454;-68
2022/07/08 01:54:50;;;;;;;;;3.00;2.33;;;;;;;;5104024;27;45500;-69
2022/07/08 01:57:15;;;;;;;;;2.67;2.67;;;;;;;;5092884;27;45587;-68
2022/07/08 01:59:44;;;;;;;;;1.00;1.00;;;;;;;;5094843;27;47424;-69
2022/07/08 02:02:10;;;;;;;;;1.00;1.00;;;;;;;;5095414;27;45461;-68
2022/07/08 02:04:35;;;;;;;;;2.33;1.33;;;;;;;;5093055;27;45421;-68
2022/07/08 02:07:00;;;;;;;;;3.00;2.00;;;;;;;;5094720;27;45591;-69
2022/07/08 02:09:26;;;;;;;;;2.00;2.00;;;;;;;;5092924;27;46190;-68
2022/07/08 02:14:35;;;;;;;;;2.00;2.00;;;;;;;;5092955;27;45307;-68
2022/07/08 02:17:00;;;;;;;;;1.00;0.67;;;;;;;;5094422;27;45693;-68
2022/07/08 02:19:25;;;;;;;;;2.00;2.00;;;;;;;;5093233;27;47302;-68
2022/07/08 02:21:51;;;;;;;;;1.00;1.00;;;;;;;;5093122;27;45428;-68
2022/07/08 02:24:16;;;;;;;;;2.00;2.00;;;;;;;;5092785;27;45464;-68
2022/07/08 02:26:41;;;;;;;;;2.33;1.00;;;;;;;;5094331;27;45286;-68
2022/07/08 02:29:06;;;;;;;;;1.00;1.00;;;;;;;;5105862;27;45373;-68
2022/07/08 02:31:31;;;;;;;;;2.00;2.00;;;;;;;;5095338;27;45382;-68
2022/07/08 02:33:57;;;;;;;;;1.33;1.33;;;;;;;;5092917;27;45452;-68
2022/07/08 02:36:22;;;;;;;;;1.00;1.00;;;;;;;;5093127;27;45564;-69
2022/07/08 02:38:47;;;;;;;;;1.33;1.33;;;;;;;;5093730;27;46520;-69
2022/07/08 02:41:12;;;;;;;;;1.33;1.33;;;;;;;;5095394;27;45360;-68
2022/07/08 02:43:38;;;;;;;;;1.00;1.00;;;;;;;;5092333;27;45225;-69
2022/07/08 02:46:03;;;;;;;;;1.00;1.00;;;;;;;;5092745;27;45502;-68
2022/07/08 02:48:28;;;;;;;;;1.00;1.00;;;;;;;;5092027;27;45578;-68
2022/07/08 02:50:53;;;;;;;;;1.33;1.33;;;;;;;;5093101;27;45293;-68
2022/07/08 02:53:18;;;;;;;;;2.00;1.33;;;;;;;;5095832;27;45451;-68
2022/07/08 02:55:44;;;;;;;;;1.00;1.00;;;;;;;;5092491;27;45740;-68
2022/07/08 02:58:09;;;;;;;;;1.00;1.00;;;;;;;;5091983;27;46142;-68
2022/07/08 03:00:34;;;;;;;;;1.00;0.67;;;;;;;;5092482;27;45389;-68
2022/07/08 03:03:00;;;;;;;;;1.00;1.00;;;;;;;;5092068;27;45350;-69
2022/07/08 03:05:25;;;;;;;;;1.00;1.00;;;;;;;;5095948;27;45280;-69
2022/07/08 03:07:50;;;;;;;;;1.00;1.00;;;;;;;;5093654;27;46113;-68
2022/07/08 03:10:15;;;;;;;;;1.00;1.00;;;;;;;;5093894;27;45477;-69
2022/07/08 03:12:40;;;;;;;;;1.00;1.00;;;;;;;;5091875;27;45380;-68
2022/07/08 03:15:06;;;;;;;;;0.00;0.00;;;;;;;;5092203;27;45489;-68
2022/07/08 03:17:31;;;;;;;;;1.00;1.00;;;;;;;;5094694;27;46265;-67
2022/07/08 03:19:56;;;;;;;;;1.33;1.33;;;;;;;;5092859;27;45389;-68
2022/07/08 03:22:22;;;;;;;;;2.00;2.00;;;;;;;;5092026;27;45284;-68
2022/07/08 03:24:47;;;;;;;;;0.67;0.33;;;;;;;;5091934;27;45487;-68
2022/07/08 03:27:12;;;;;;;;;1.00;1.00;;;;;;;;5091581;27;47361;-68
2022/07/08 03:29:37;;;;;;;;;2.33;2.33;;;;;;;;5108744;27;45665;-68
2022/07/08 03:32:03;;;;;;;;;1.00;1.00;;;;;;;;5093374;27;45484;-68
2022/07/08 03:34:28;;;;;;;;;2.00;2.00;;;;;;;;5091728;27;45664;-68
2022/07/08 03:36:53;;;;;;;;;1.00;1.00;;;;;;;;5091658;27;45486;-68
2022/07/08 03:39:18;;;;;;;;;1.33;1.33;;;;;;;;5091859;27;45472;-68
2022/07/08 03:41:43;;;;;;;;;1.67;1.00;;;;;;;;5093343;27;45453;-69
2022/07/08 03:44:09;;;;;;;;;1.00;1.00;;;;;;;;5093851;27;45421;-69
2022/07/08 03:46:34;;;;;;;;;1.67;1.00;;;;;;;;5091538;27;45551;-68
2022/07/08 03:48:59;;;;;;;;;1.00;1.00;;;;;;;;5091573;27;45345;-68
2022/07/08 03:51:24;;;;;;;;;1.00;1.00;;;;;;;;5092016;27;45267;-68
2022/07/08 03:53:50;;;;;;;;;0.00;0.00;;;;;;;;5091289;27;45680;-68
2022/07/08 03:56:15;;;;;;;;;0.33;0.33;;;;;;;;5094145;27;47237;-68
2022/07/08 03:58:40;;;;;;;;;1.67;1.67;;;;;;;;5091736;27;45345;-68
2022/07/08 04:01:06;;;;;;;;;2.00;2.00;;;;;;;;5091755;27;45366;-68
2022/07/08 04:03:31;;;;;;;;;1.00;1.00;;;;;;;;5091540;27;45449;-68
2022/07/08 04:05:56;;;;;;;;;1.00;1.00;;;;;;;;5091081;27;46496;-68
2022/07/08 04:08:23;;;;;;;;;2.67;1.67;;;;;;;;5095123;27;45420;-68
2022/07/08 04:10:48;;;;;;;;;3.00;2.00;;;;;;;;5091182;27;45507;-69
2022/07/08 04:13:13;;;;;;;;;0.00;0.00;;;;;;;;5091485;27;45448;-68
2022/07/08 04:15:38;;;;;;;;;3.00;1.67;;;;;;;;5093518;27;46656;-68
2022/07/08 04:18:03;;;;;;;;;1.00;1.00;;;;;;;;5094969;27;45326;-69
2022/07/08 04:20:29;;;;;;;;;1.00;1.00;;;;;;;;5097684;27;45401;-69
2022/07/08 04:22:54;;;;;;;;;1.00;1.00;;;;;;;;5095751;27;45542;-68
2022/07/08 04:25:20;;;;;;;;;1.00;1.00;;;;;;;;5094168;27;45408;-69
2022/07/08 04:27:45;;;;;;;;;1.00;1.00;;;;;;;;5094227;27;45401;-69
2022/07/08 04:30:10;;;;;;;;;1.00;1.00;;;;;;;;5109503;27;45443;-68
2022/07/08 04:32:35;;;;;;;;;1.00;1.00;;;;;;;;5097255;27;45375;-68
2022/07/08 04:35:01;;;;;;;;;1.67;1.67;;;;;;;;5095939;27;46204;-68
2022/07/08 04:37:26;;;;;;;;;2.00;2.00;;;;;;;;5094656;27;47387;-69
2022/07/08 04:39:52;;;;;;;;;0.33;0.33;;;;;;;;5094552;27;45463;-69
2022/07/08 04:42:17;;;;;;;;;1.67;1.67;;;;;;;;5094590;27;45321;-68
2022/07/08 04:44:42;;;;;;;;;0.67;0.67;;;;;;;;5096276;27;45810;-69
2022/07/08 04:47:08;;;;;;;;;1.00;1.00;;;;;;;;5096246;27;45517;-68
2022/07/08 04:49:33;;;;;;;;;0.00;0.00;;;;;;;;5094548;27;45526;-69
2022/07/08 04:51:58;;;;;;;;;1.00;1.00;;;;;;;;5094753;27;45512;-69
2022/07/08 04:54:24;;;;;;;;;1.00;1.00;;;;;;;;5093967;27;46114;-69
2022/07/08 04:56:49;;;;;;;;;1.00;1.00;;;;;;;;5095136;27;45418;-69
2022/07/08 04:59:14;;;;;;;;;2.00;1.00;;;;;;;;5097033;27;45386;-68
2022/07/08 05:01:39;;;;;;;;;1.33;1.33;;;;;;;;5093993;27;45651;-69
2022/07/08 05:04:05;;;;;;;;;1.00;1.00;;;;;;;;5094251;27;45997;-69
2022/07/08 05:06:30;;;;;;;;;1.00;1.00;;;;;;;;5093878;27;45453;-69
2022/07/08 05:08:55;;;;;;;;;2.00;2.00;;;;;;;;5095832;27;48560;-69
2022/07/08 05:11:20;;;;;;;;;1.00;1.00;;;;;;;;5097194;27;45409;-69
2022/07/08 05:13:45;;;;;;;;;2.00;1.00;;;;;;;;5093792;27;45464;-68
2022/07/08 05:16:11;;;;;;;;;0.67;0.67;;;;;;;;5093906;27;45437;-68
2022/07/08 05:18:36;;;;;;;;;1.00;1.00;;;;;;;;5094113;27;45437;-69
2022/07/08 05:21:01;;;;;;;;;0.00;0.00;;;;;;;;5094222;27;45381;-68
2022/07/08 05:23:26;;;;;;;;;0.33;0.33;;;;;;;;5096847;27;45453;-69
2022/07/08 05:25:52;;;;;;;;;1.67;1.67;;;;;;;;5095117;27;45496;-69
2022/07/08 05:28:17;;;;;;;;;2.00;2.00;;;;;;;;5097598;27;45651;-69
2022/07/08 05:30:42;;;;;;;;;1.00;1.00;;;;;;;;5105244;27;45451;-69
2022/07/08 05:33:07;;;;;;;;;1.00;1.00;;;;;;;;5093626;27;45333;-69
2022/07/08 05:35:32;;;;;;;;;1.00;1.00;;;;;;;;5096169;27;45373;-69
2022/07/08 05:37:58;;;;;;;;;1.00;1.00;;;;;;;;5094723;27;45316;-69
2022/07/08 05:40:23;;;;;;;;;1.00;1.00;;;;;;;;5093713;27;45545;-68
2022/07/08 05:42:48;;;;;;;;;2.00;2.00;;;;;;;;5093763;27;46387;-68
2022/07/08 05:45:13;;;;;;;;;1.00;1.00;;;;;;;;5093673;27;45430;-69
2022/07/08 05:47:39;;;;;;;;;2.33;1.00;;;;;;;;5096180;27;45372;-68
2022/07/08 05:50:04;;;;;;;;;1.00;1.00;;;;;;;;5094801;27;45571;-68
2022/07/08 05:52:29;;;;;;;;;0.00;0.00;;;;;;;;5092865;27;45476;-68
2022/07/08 05:54:54;;;;;;;;;2.00;1.00;;;;;;;;5095068;27;46171;-69
2022/07/08 05:57:20;;;;;;;;;0.67;0.67;;;;;;;;5093394;27;45342;-68
2022/07/08 05:59:45;;;;;;;;;1.00;1.00;;;;;;;;5095073;27;45318;-68
2022/07/08 06:02:10;;;;;;;;;1.00;1.00;;;;;;;;5095506;27;45353;-69
2022/07/08 06:04:36;;;;;;;;;1.00;1.00;;;;;;;;5092703;27;45580;-68
2022/07/08 06:07:01;;;;;;;;;0.00;0.00;;;;;;;;5093069;27;45690;-68
2022/07/08 06:09:26;;;;;;;;;1.00;1.00;;;;;;;;5093541;27;45550;-68
2022/07/08 06:11:51;;;;;;;;;2.67;1.33;;;;;;;;5093833;27;45507;-69
2022/07/08 06:14:17;;;;;;;;;1.00;1.00;;;;;;;;5096211;27;45336;-68
2022/07/08 06:16:42;;;;;;;;;2.67;1.00;;;;;;;;5093116;27;45365;-68
2022/07/08 06:19:08;;;;;;;;;2.00;2.00;;;;;;;;5092741;27;45548;-68
2022/07/08 06:21:33;;;;;;;;;0.00;0.00;;;;;;;;5092835;27;46230;-68
2022/07/08 06:24:00;;;;;;;;;1.33;1.00;;;;;;;;5092979;27;45491;-71
2022/07/08 06:26:26;;;;;;;;;1.67;0.00;;;;;;;;5096620;27;45502;-70
2022/07/08 06:28:51;;;;;;;;;1.00;1.00;;;;;;;;5099503;27;45283;-70
2022/07/08 06:31:16;;;;;;;;;1.00;1.00;;;;;;;;5097536;27;45520;-70
2022/07/08 06:33:41;;;;;;;;;4.00;1.00;;;;;;;;5092739;27;45627;-70
2022/07/08 06:36:07;;;;;;;;;1.00;1.00;;;;;;;;5092792;27;45445;-71
2022/07/08 06:38:32;;;;;;;;;1.33;1.33;;;;;;;;5094989;27;45409;-69
2022/07/08 06:40:57;;;;;;;;;3.67;2.67;;;;;;;;5093731;27;45426;-72
2022/07/08 06:43:22;;;;;;;;;1.00;1.00;;;;;;;;5092312;27;45623;-71
2022/07/08 06:45:48;;;;;;;;;2.00;0.67;;;;;;;;5092874;27;45892;-73
2022/07/08 06:48:13;;;;;;;;;2.00;1.00;;;;;;;;5093006;27;45239;-73
2022/07/08 06:50:38;;;;;;;;;2.33;1.33;;;;;;;;5093809;27;45514;-73
2022/07/08 06:53:03;;;;;;;;;1.67;0.67;;;;;;;;5095770;27;45606;-73
2022/07/08 06:55:29;;;;;;;;;2.00;1.00;;;;;;;;5095682;27;45316;-73
2022/07/08 06:57:54;;;;;;;;;2.00;1.00;;;;;;;;5099583;27;45383;-73
2022/07/08 07:00:22;;;;;;;;;2.00;2.00;;;;;;;;5092655;27;46138;-82
2022/07/08 07:02:47;;;;;;;;;1.00;1.00;;;;;;;;5092555;27;45574;-82
2022/07/08 07:05:13;;;;;;;;;0.67;0.00;;;;;;;;5094490;27;45744;-81
2022/07/08 07:07:39;;;;;;;;;1.00;1.00;;;;;;;;5094399;27;45395;-82
2022/07/08 07:10:04;;;;;;;;;2.00;1.00;;;;;;;;5092140;27;45544;-82
2022/07/08 07:12:30;;;;;;;;;4.00;1.67;;;;;;;;5092511;27;45535;-81
2022/07/08 07:14:55;;;;;;;;;1.33;1.00;;;;;;;;5093127;27;45341;-81
2022/07/08 07:17:21;;;;;;;;;0.33;0.33;;;;;;;;5096087;27;45368;-81
2022/07/08 07:19:46;;;;;;;;;2.00;1.00;;;;;;;;5091869;27;46364;-80
2022/07/08 07:22:12;;;;;;;;;2.00;2.00;;;;;;;;5095188;27;45341;-81
2022/07/08 07:24:37;;;;;;;;;2.00;0.67;;;;;;;;5088135;27;45492;-80
2022/07/08 07:27:03;;;;;;;;;2.00;1.33;;;;;;;;5092125;27;45427;-82
2022/07/08 07:29:28;;;;;;;;;2.67;1.00;;;;;;;;5110125;27;46386;-82
2022/07/08 07:31:53;;;;;;;;;1.00;1.00;;;;;;;;5100340;27;45247;-82
2022/07/08 07:34:19;;;;;;;;;1.00;1.00;;;;;;;;5096750;27;45521;-82
2022/07/08 07:36:44;;;;;;;;;1.00;1.00;;;;;;;;5092265;27;45465;-82
2022/07/08 07:39:10;;;;;;;;;2.00;2.00;;;;;;;;5091815;27;45452;-81
2022/07/08 07:41:36;;;;;;;;;1.67;1.67;;;;;;;;5094439;27;45433;-80
2022/07/08 07:44:01;;;;;;;;;1.33;0.67;;;;;;;;5093204;27;45453;-81
2022/07/08 07:46:27;;;;;;;;;1.00;1.00;;;;;;;;5092057;27;45599;-81
2022/07/08 07:48:52;;;;;;;;;2.00;2.00;;;;;;;;5091877;27;46567;-82
2022/07/08 07:51:17;;;;;;;;;1.00;1.00;;;;;;;;5095679;27;48539;-81
2022/07/08 07:53:42;;;;;;;;;1.33;1.00;;;;;;;;5097316;27;45616;-82
2022/07/08 07:56:07;;;;;;;;;0.67;0.67;;;;;;;;5099382;27;45362;-82
2022/07/08 07:58:33;;;;;;;;;1.33;1.33;;;;;;;;5095353;27;45567;-82
2022/07/08 08:00:58;;;;;;;;;1.00;1.00;;;;;;;;5095293;27;45380;-84
2022/07/08 08:03:23;;;;;;;;;2.00;1.00;;;;;;;;5095524;27;45497;-84
2022/07/08 08:05:48;;;;;;;;;1.00;0.67;;;;;;;;5096988;27;45476;-83
2022/07/08 08:08:14;;;;;;;;;1.67;1.00;;;;;;;;5098055;27;46310;-84
2022/07/08 08:10:39;;;;;;;;;3.33;2.00;;;;;;;;5095104;27;48493;-84
2022/07/08 08:13:04;;;;;;;;;1.00;1.00;;;;;;;;5095605;27;45537;-84
2022/07/08 08:15:30;;;;;;;;;1.00;1.00;;;;;;;;5097974;27;45465;-83
2022/07/08 08:17:56;;;;;;;;;1.00;1.00;;;;;;;;5096735;27;45324;-84
2022/07/08 08:20:23;;;;;;;;;1.67;1.67;;;;;;;;5099812;27;45422;-82
2022/07/08 08:22:48;;;;;;;;;1.00;1.00;;;;;;;;5095635;27;48516;-83
2022/07/08 08:25:13;;;;;;;;;1.00;1.00;;;;;;;;5095119;27;45253;-84
2022/07/08 08:27:40;;;;;;;;;1.67;1.67;;;;;;;;5090726;27;46588;-83
2022/07/08 08:30:05;;;;;;;;;0.00;0.00;;;;;;;;5109495;27;45526;-83
2022/07/08 08:32:30;;;;;;;;;1.00;1.00;;;;;;;;5098048;27;45345;-84
2022/07/08 08:34:56;;;;;;;;;1.00;1.00;;;;;;;;5097535;27;45439;-83
2022/07/08 08:37:24;;;;;;;;;1.00;1.00;;;;;;;;5094875;27;46294;-83
2022/07/08 08:39:49;;;;;;;;;1.00;1.00;;;;;;;;5094635;27;45432;-83
2022/07/08 08:42:15;;;;;;;;;1.00;1.00;;;;;;;;5095023;27;45592;-83
2022/07/08 08:44:40;;;;;;;;;1.00;1.00;;;;;;;;5097473;27;45447;-83
2022/07/08 08:47:07;;;;;;;;;1.00;1.00;;;;;;;;5095232;27;46584;-83
2022/07/08 08:49:34;;;;;;;;;1.33;1.33;;;;;;;;5094893;27;45355;-83
2022/07/08 08:52:01;;;;;;;;;0.00;0.00;;;;;;;;5096242;27;45341;-84
2022/07/08 08:54:27;;;;;;;;;1.00;1.00;;;;;;;;5094435;27;45391;-82
2022/07/08 08:56:53;;;;;;;;;1.00;1.00;;;;;;;;5095098;27;46171;-82
2022/07/08 08:59:18;;;;;;;;;1.00;1.00;;;;;;;;5096911;27;45361;-84
2022/07/08 09:01:44;;;;;;;;;1.00;1.00;;;;;;;;5094472;27;45282;-84
2022/07/08 09:04:11;;;;;;;;;0.00;0.00;;;;;;;;5094928;27;45409;-84
2022/07/08 09:06:37;;;;;;;;;0.33;0.33;;;;;;;;5094426;27;45851;-84
2022/07/08 09:09:02;;;;;;;;;1.00;1.00;;;;;;;;5094535;27;45325;-84
2022/07/08 09:11:28;;;;;;;;;1.33;1.33;;;;;;;;5097971;27;45456;-82
2022/07/08 09:14:11;;;;;;;;;1.00;1.00;;;;;;;;5094173;27;45557;-83
2022/07/08 09:16:37;;;;;;;;;2.00;1.00;;;;;;;;5094480;27;45571;-83
2022/07/08 09:19:22;;;;;;;;;0.00;0.00;;;;;;;;5096591;27;45389;-84
2022/07/08 09:21:51;;;;;;;;;1.00;1.00;;;;;;;;5093804;27;45303;-82
2022/07/08 09:24:17;;;;;;;;;3.00;1.67;;;;;;;;5094228;27;45396;-83
2022/07/08 09:26:42;;;;;;;;;2.00;2.00;;;;;;;;5095499;27;47033;-83
2022/07/08 09:29:08;;;;;;;;;1.00;1.00;;;;;;;;5107213;27;45361;-83
2022/07/08 09:31:36;;;;;;;;;1.67;1.00;;;;;;;;5097077;27;45339;-83
2022/07/08 09:34:06;;;;;;;;;1.33;1.33;;;;;;;;5094223;27;45440;-83
2022/07/08 09:36:47;;;;;;;;;1.00;1.00;;;;;;;;5094247;27;45447;-84
2022/07/08 09:39:22;;;;;;;;;1.00;1.00;;;;;;;;5094185;27;45487;-82
2022/07/08 09:41:48;;;;;;;;;1.67;1.67;;;;;;;;5095191;27;45479;-82
2022/07/08 09:44:14;;;;;;;;;0.00;0.00;;;;;;;;5096251;27;45484;-82
2022/07/08 09:46:41;;;;;;;;;1.00;1.00;;;;;;;;5096375;27;45477;-82
2022/07/08 09:49:07;;;;;;;;;1.00;1.00;;;;;;;;5093874;27;46037;-82
2022/07/08 09:51:32;;;;;;;;;3.67;0.67;;;;;;;;5093710;27;45420;-83
2022/07/08 09:54:10;;;;;;;;;4.00;2.00;;;;;;;;5093867;27;45335;-81
2022/07/08 09:56:35;;;;;;;;;3.00;1.00;;;;;;;;5092746;27;46491;-74
2022/07/08 09:59:01;;;;;;;;;1.00;1.00;;;;;;;;5094694;27;45463;-75
2022/07/08 10:01:28;;;;;;;;;0.00;0.00;;;;;;;;5093695;27;45286;-70
2022/07/08 10:03:54;;;;;;;;;3.00;2.33;;;;;;;;5093381;27;45542;-75
2022/07/08 10:06:19;;;;;;;;;3.00;1.67;;;;;;;;5090372;27;45990;-73
2022/07/08 10:08:44;;;;;;;;;3.00;2.00;;;;;;;;5094015;27;45341;-75
2022/07/08 10:11:12;;;;;;;;;2.00;1.00;;;;;;;;5095319;27;45772;-73
2022/07/08 10:13:39;;;;;;;;;3.00;2.67;;;;;;;;5092252;27;45511;-75
2022/07/08 10:16:07;;;;;;;;;2.00;1.67;;;;;;;;5093315;27;45420;-74
2022/07/08 10:18:38;;;;;;;;;3.67;2.33;;;;;;;;5093506;27;45414;-75
2022/07/08 10:21:05;;;;;;;;;2.67;2.00;;;;;;;;5093391;27;45534;-74
2022/07/08 10:23:33;;;;;;;;;2.00;2.00;;;;;;;;5096632;27;45290;-74
2022/07/08 10:25:59;;;;;;;;;1.00;1.00;;;;;;;;5093763;27;47187;-74
2022/07/08 10:28:34;;;;;;;;;1.33;1.33;;;;;;;;5097559;27;45299;-75
2022/07/08 10:30:59;;;;;;;;;4.00;1.67;;;;;;;;5101072;27;45333;-75
2022/07/08 10:33:26;;;;;;;;;2.00;2.00;;;;;;;;5092885;27;45484;-75
2022/07/08 10:36:17;;;;;;;;;4.00;2.33;;;;;;;;5093350;27;46548;-78
2022/07/08 10:38:43;;;;;;;;;1.33;1.00;;;;;;;;5091245;27;45436;-74
2022/07/08 10:41:13;;;;;;;;;2.67;2.67;;;;;;;;5094235;27;45492;-74
2022/07/08 10:43:48;;;;;;;;;2.00;2.00;;;;;;;;5092699;27;45457;-74
2022/07/08 10:46:15;;;;;;;;;2.00;2.00;;;;;;;;5094146;27;45291;-74
2022/07/08 10:48:40;;;;;;;;;2.67;2.00;;;;;;;;5092642;27;45579;-74
2022/07/08 10:51:05;;;;;;;;;3.33;1.67;;;;;;;;5092733;27;45804;-74
2022/07/08 10:53:49;;;;;;;;;3.00;3.00;;;;;;;;5095938;27;45467;-74
2022/07/08 10:56:33;;;;;;;;;4.00;3.00;;;;;;;;5094968;27;45391;-74
2022/07/08 10:59:18;;;;;;;;;4.00;2.67;;;;;;;;5093911;27;45428;-74
2022/07/08 11:01:48;;;;;;;;;4.00;3.67;;;;;;;;5092659;27;45662;-75
2022/07/08 11:04:20;;;;;;;;;5.33;3.00;;;;;;;;5092267;27;45471;-74
2022/07/08 11:06:45;;;;;;;;;3.00;3.00;;;;;;;;5094081;27;46220;-74
2022/07/08 11:09:15;;;;;;;;;2.33;2.33;;;;;;;;5092483;27;45530;-75
2022/07/08 11:11:40;;;;;;;;;2.33;2.33;;;;;;;;5093191;27;45404;-74
2022/07/08 11:14:05;;;;;;;;;5.00;3.00;;;;;;;;5095621;27;45440;-74
2022/07/08 11:16:31;;;;;;;;;2.33;2.33;;;;;;;;5091837;27;45419;-75
2022/07/08 11:18:56;;;;;;;;;3.00;3.00;;;;;;;;5092447;27;45435;-74
2022/07/08 11:21:22;;;;;;;;;3.00;3.00;;;;;;;;5093412;27;45331;-74
2022/07/08 11:23:47;;;;;;;;;3.00;2.00;;;;;;;;5093729;27;45311;-74
2022/07/08 11:26:17;;;;;;;;;3.33;1.67;;;;;;;;5094217;27;45554;-72
2022/07/08 11:28:42;;;;;;;;;3.00;3.00;;;;;;;;5099758;27;45269;-73
2022/07/08 11:31:17;;;;;;;;;3.00;3.00;;;;;;;;5098151;27;45303;-74
2022/07/08 11:33:42;;;;;;;;;3.00;2.00;;;;;;;;5092144;27;45593;-75
2022/07/08 11:36:13;;;;;;;;;2.00;2.00;;;;;;;;5091542;27;45969;-75
2022/07/08 11:38:38;;;;;;;;;3.00;3.00;;;;;;;;5094790;27;45359;-74
2022/07/08 11:41:03;;;;;;;;;2.67;2.67;;;;;;;;5095017;27;45377;-75
2022/07/08 11:43:29;;;;;;;;;2.00;2.00;;;;;;;;5091801;27;45452;-74
2022/07/08 11:45:54;;;;;;;;;2.67;2.67;;;;;;;;5091949;27;46361;-74
2022/07/08 11:48:19;;;;;;;;;3.33;3.00;;;;;;;;5092038;27;45385;-74
2022/07/08 11:50:48;;;;;;;;;3.00;3.00;;;;;;;;5093309;27;45531;-74
2022/07/08 11:53:20;;;;;;;;;2.00;2.00;;;;;;;;5094096;27;45463;-75
2022/07/08 11:55:46;;;;;;;;;3.00;3.00;;;;;;;;5091344;27;45448;-74
2022/07/08 11:58:19;;;;;;;;;3.00;2.67;;;;;;;;5091372;27;45302;-74
2022/07/08 12:00:44;;;;;;;;;2.00;2.00;;;;;;;;5091938;27;45365;-74
2022/07/08 12:03:09;;;;;;;;;4.67;2.00;;;;;;;;5091649;27;45606;-75
2022/07/08 12:05:37;;;;;;;;;4.00;4.00;;;;;;;;5094696;27;45544;-74
2022/07/08 12:08:12;;;;;;;;;2.33;2.33;;;;;;;;5093985;27;45268;-71
2022/07/08 12:10:37;;;;;;;;;3.00;3.00;;;;;;;;5091072;27;45492;-74
2022/07/08 12:13:03;;;;;;;;;2.67;2.67;;;;;;;;5091439;27;45362;-71
2022/07/08 12:15:35;;;;;;;;;3.00;3.00;;;;;;;;5092296;27;45437;-72
2022/07/08 12:18:00;;;;;;;;;4.00;1.67;;;;;;;;5086448;27;45489;-72
2022/07/08 12:20:36;;;;;;;;;4.00;2.33;;;;;;;;5093891;27;45320;-73
2022/07/08 12:23:01;;;;;;;;;2.33;2.33;;;;;;;;5093396;27;45515;-73
2022/07/08 12:25:27;;;;;;;;;2.00;2.00;;;;;;;;5091127;27;47378;-73
2022/07/08 12:28:00;;;;;;;;;3.33;3.33;;;;;;;;5093895;27;45402;-76
2022/07/08 12:30:29;;;;;;;;;3.00;3.00;;;;;;;;5104187;27;45364;-78
2022/07/08 12:32:58;;;;;;;;;3.00;2.33;;;;;;;;5103273;27;45471;-79
2022/07/08 12:35:29;;;;;;;;;4.67;2.33;;;;;;;;5090776;27;45671;-76
2022/07/08 12:38:04;;;;;;;;;2.00;2.00;;;;;;;;5095982;27;45316;-74
2022/07/08 12:40:35;;;;;;;;;3.33;3.33;;;;;;;;5094750;27;45473;-76
2022/07/08 12:43:03;;;;;;;;;3.00;3.00;;;;;;;;5090569;27;45430;-75
2022/07/08 12:45:29;;;;;;;;;3.00;3.00;;;;;;;;5096126;27;47420;-76
2022/07/08 12:47:54;;;;;;;;;3.00;3.00;;;;;;;;5094736;27;45350;-76
2022/07/08 12:50:20;;;;;;;;;3.00;3.00;;;;;;;;5097852;27;45634;-79
2022/07/08 12:52:45;;;;;;;;;2.67;2.00;;;;;;;;5094565;27;45460;-79
2022/07/08 12:55:10;;;;;;;;;3.00;3.00;;;;;;;;5096517;27;45427;-74
2022/07/08 12:57:36;;;;;;;;;4.00;2.00;;;;;;;;5094407;27;45464;-78
2022/07/08 13:00:01;;;;;;;;;2.00;2.00;;;;;;;;5094890;27;45335;-74
2022/07/08 13:02:26;;;;;;;;;3.00;3.00;;;;;;;;5098517;27;45541;-77
2022/07/08 13:04:52;;;;;;;;;3.00;3.00;;;;;;;;5096221;27;46139;-74
2022/07/08 13:07:18;;;;;;;;;3.33;3.00;;;;;;;;5093705;27;45417;-80
2022/07/08 13:09:43;;;;;;;;;4.00;4.00;;;;;;;;5094715;27;45321;-78
2022/07/08 13:12:08;;;;;;;;;2.67;2.67;;;;;;;;5105195;27;45404;-73
2022/07/08 13:14:34;;;;;;;;;4.33;4.00;;;;;;;;5097017;27;45453;-73
2022/07/08 13:16:59;;;;;;;;;3.33;2.67;;;;;;;;5093679;27;45309;-75
2022/07/08 13:19:24;;;;;;;;;1.00;1.00;;;;;;;;5094097;27;45499;-74
2022/07/08 13:21:49;;;;;;;;;2.00;2.00;;;;;;;;5093870;27;45469;-74
2022/07/08 13:24:15;;;;;;;;;2.00;2.00;;;;;;;;5094136;27;46403;-70
2022/07/08 13:26:40;;;;;;;;;4.33;3.00;;;;;;;;5096527;27;45418;-78
2022/07/08 13:29:06;;;;;;;;;3.00;2.00;;;;;;;;5107032;27;45450;-74
2022/07/08 13:31:31;;;;;;;;;2.00;2.00;;;;;;;;5099961;27;45531;-74
2022/07/08 13:33:56;;;;;;;;;5.00;2.00;;;;;;;;5101795;27;47296;-72
2022/07/08 13:36:22;;;;;;;;;3.00;3.00;;;;;;;;5093407;27;45318;-73
2022/07/08 13:38:47;;;;;;;;;4.00;4.00;;;;;;;;5096871;27;45458;-72
2022/07/08 13:41:12;;;;;;;;;5.00;3.67;;;;;;;;5095996;27;45454;-78
2022/07/08 13:43:38;;;;;;;;;3.67;2.67;;;;;;;;5093296;27;45551;-68
2022/07/08 13:46:05;;;;;;;;;4.33;3.33;;;;;;;;5093704;27;45429;-79
2022/07/08 13:48:30;;;;;;;;;2.00;2.00;;;;;;;;5092878;27;45519;-80
2022/07/08 13:50:55;;;;;;;;;3.33;3.00;;;;;;;;5094221;27;45573;-81
2022/07/08 13:53:20;;;;;;;;;2.67;2.00;;;;;;;;5096921;27;45543;-80
2022/07/08 13:55:45;;;;;;;;;2.33;2.33;;;;;;;;5093690;27;45439;-77
2022/07/08 13:58:11;;;;;;;;;4.00;2.00;;;;;;;;5093562;27;45479;-82
2022/07/08 14:00:36;;;;;;;;;3.00;3.00;;;;;;;;5093678;27;45560;-76
2022/07/08 14:03:01;;;;;;;;;2.67;2.67;;;;;;;;5094543;27;46551;-78
2022/07/08 14:05:27;;;;;;;;;2.00;2.00;;;;;;;;5099005;27;45436;-75
2022/07/08 14:07:52;;;;;;;;;3.00;3.00;;;;;;;;5093084;27;45326;-78
2022/07/08 14:10:17;;;;;;;;;4.00;3.33;;;;;;;;5093467;27;45433;-76
2022/07/08 14:12:42;;;;;;;;;2.00;2.00;;;;;;;;5093377;27;47484;-74
2022/07/08 14:15:08;;;;;;;;;2.00;2.00;;;;;;;;5093237;27;45393;-75
2022/07/08 14:17:35;;;;;;;;;3.67;3.67;;;;;;;;5094394;27;45590;-73
2022/07/08 14:20:01;;;;;;;;;3.67;3.67;;;;;;;;5094987;27;45412;-73
2022/07/08 14:22:26;;;;;;;;;4.67;4.67;;;;;;;;5092791;27;45987;-72
2022/07/08 14:24:51;;;;;;;;;3.33;3.33;;;;;;;;5093210;27;45304;-73
2022/07/08 14:27:16;;;;;;;;;2.00;2.00;;;;;;;;5092702;27;45641;-73
2022/07/08 14:29:42;;;;;;;;;2.00;2.00;;;;;;;;5109885;27;45420;-73
2022/07/08 14:32:07;;;;;;;;;4.33;4.00;;;;;;;;5102095;27;45665;-73
2022/07/08 14:34:32;;;;;;;;;4.00;3.00;;;;;;;;5095204;27;45395;-73
2022/07/08 14:36:58;;;;;;;;;2.00;2.00;;;;;;;;5093064;27;45440;-73
2022/07/08 14:39:23;;;;;;;;;2.67;2.67;;;;;;;;5092794;27;45283;-73